Sabana De La Mar, Dominican Republic

8:08 AM AST on February 09, 2016 (GMT -0400)
Restaurant Jhonson | | Change Station
CLOSE
Current Station
Personal Weather Station
Location: Sabana De La Mar, HATO MAYOR
Elevation: 10 ft
Nearby Weather Stations

Elev 10 ft 19.07 °N, 69.38 °W | Updated 7 seconds ago

Partly Cloudy
Partly Cloudy
73.8 °F
Feels Like 71 °F
N
0.0
Wind Variable Wind from WSW
Gusts 0.0 mph

Today
High -- | Low -- °F
--% Chance of Precip.
Yesterday
High -- | Low -- °F
Precip. -- in
Pressure 29.98 in
Visibility 6.2 miles
Clouds Few 1800 ft
Heat Index 71 °F
Dew Point 72 °F
Humidity 94%
Rainfall 0.00 in
Snow Depth Not available.
7:08 AM 6:34 PM
New Moon, 1% visible
METAR MDCY 091100Z 00000KT 9999 FEW018 20/19 Q1015 NOSIG
Pressure 29.98 in
Visibility 6.2 miles
Clouds Few 1800 ft
Heat Index 71 °F
Dew Point 72 °F
Humidity 94%
Rainfall 0.00 in
Snow Depth Not available.
7:08 AM 6:34 PM
New Moon, 1% visible
METAR MDCY 091100Z 00000KT 9999 FEW018 20/19 Q1015 NOSIG

10-Day Weather Forecast

No radar image for this location.
×

Almanac

Astronomy

Feb. 09, 2016 Rise Set
Actual Time
Civil Twilight
Nautical Twilight
Astronomical Twilight
Moon
Length of Visible Light
Length of Day
Tomorrow will be .
, % of the Moon is Illuminated

Today's Extremes

Country Highs Country Lows

Community

WunderPhotos

Upload Photos

1,891,565 photos uploaded!

WunderBlog® & News

Nearby

Air Quality

  Air Quality AQ Index Pollutant
Not available.

Snow Depth

Station Depth Elevation

Earthquake Activity

City Distance Mag. Time & Date
Minimum magnitude displayed is 2.5.

Coastal Water Temperatures

Place Temperature

Stations

Nearby Weather Stations

Station Location Temp. Windchill Dew Point Humidity Wind Precip. Elev Updated Type